Time;durP1;ratioP1;P1;durP2;ratioP2;P2;SDS_P1;SDS_P2;PMS_P1;PMS_P2;Temp;Humidity;BMP_temperature;BMP_pressure;BME280_temperature;BME280_humidity;BME280_pressure;Samples;Min_cycle;Max_cycle;Signal;HPM_P1;HPM_P2
2022/06/09 00:00:10;;;;;;;4.93;3.45;;;19.10;95.20;;;;;;5071141;28;20029;-67
2022/06/09 00:02:38;;;;;;;3.97;2.95;;;19.00;95.00;;;;;;5069721;28;20047;-67
2022/06/09 00:05:06;;;;;;;4.43;2.83;;;18.90;95.10;;;;;;5057987;28;20164;-67
2022/06/09 00:07:33;;;;;;;7.28;3.67;;;18.90;95.10;;;;;;5071048;28;20571;-67
2022/06/09 00:10:05;;;;;;;7.18;3.58;;;18.90;95.10;;;;;;5070683;28;20125;-67
2022/06/09 00:12:34;;;;;;;5.63;3.22;;;18.90;95.10;;;;;;5058492;28;20033;-67
2022/06/09 00:15:03;;;;;;;6.47;3.83;;;18.90;95.40;;;;;;5056317;28;20159;-67
2022/06/09 00:17:30;;;;;;;5.85;4.30;;;18.90;95.10;;;;;;5056678;28;20025;-67
2022/06/09 00:19:56;;;;;;;6.85;4.50;;;18.80;95.00;;;;;;5067228;28;20585;-67
2022/06/09 00:22:21;;;;;;;6.20;3.63;;;18.90;95.10;;;;;;5055650;28;20044;-67
2022/06/09 00:24:47;;;;;;;6.60;4.22;;;18.80;94.90;;;;;;5056629;28;20535;-67
2022/06/09 00:27:13;;;;;;;6.03;4.10;;;18.80;94.80;;;;;;5073672;28;20028;-67
2022/06/09 00:29:39;;;;;;;7.57;4.40;;;18.80;94.80;;;;;;5058999;28;20435;-67
2022/06/09 00:32:05;;;;;;;8.05;4.97;;;18.80;94.80;;;;;;5063769;28;20017;-67
2022/06/09 00:34:31;;;;;;;6.55;4.32;;;18.70;94.90;;;;;;5060742;28;20124;-67
2022/06/09 00:36:57;;;;;;;5.43;3.65;;;18.70;94.90;;;;;;5074533;28;20484;-67
2022/06/09 00:39:23;;;;;;;5.95;3.88;;;18.70;94.90;;;;;;5073076;28;20067;-67
2022/06/09 00:41:48;;;;;;;5.50;3.88;;;18.70;94.90;;;;;;5072086;28;20032;-67
2022/06/09 00:44:21;;;;;;;6.55;4.55;;;18.70;94.70;;;;;;5063200;28;20037;-67
2022/06/09 00:46:54;;;;;;;6.03;3.87;;;18.60;94.70;;;;;;5062722;28;20068;-67
2022/06/09 00:49:33;;;;;;;7.80;4.30;;;18.60;94.70;;;;;;5066052;28;20271;-67
2022/06/09 00:52:01;;;;;;;7.30;4.82;;;18.60;94.60;;;;;;5060034;28;20029;-67
2022/06/09 00:54:38;;;;;;;11.00;4.93;;;18.50;94.40;;;;;;5065131;28;20111;-67
2022/06/09 00:57:11;;;;;;;10.40;5.90;;;18.50;94.40;;;;;;5071806;28;20037;-67
2022/06/09 00:59:41;;;;;;;11.25;6.15;;;18.50;94.50;;;;;;5068439;28;20075;-67
2022/06/09 01:02:10;;;;;;;11.00;5.93;;;18.40;94.40;;;;;;5064294;28;20127;-67
2022/06/09 01:04:36;;;;;;;12.30;6.55;;;18.40;94.50;;;;;;5073687;28;20032;-67
2022/06/09 01:07:11;;;;;;;14.10;7.03;;;18.40;94.80;;;;;;5068059;28;20047;-67
2022/06/09 01:09:38;;;;;;;13.60;7.40;;;18.40;94.60;;;;;;5061966;28;20024;-67
2022/06/09 01:12:37;;;;;;;11.88;7.15;;;18.30;94.70;;;;;;5058123;28;20067;-67
2022/06/09 01:15:22;;;;;;;15.40;7.00;;;18.30;94.80;;;;;;5070478;28;20129;-67
2022/06/09 01:18:02;;;;;;;14.80;8.10;;;18.30;94.80;;;;;;5061323;28;20365;-67
2022/06/09 01:20:34;;;;;;;15.50;9.05;;;18.30;94.70;;;;;;5066905;28;20048;-67
2022/06/09 01:23:12;;;;;;;14.07;7.95;;;18.30;94.70;;;;;;5059403;28;20036;-67
2022/06/09 01:26:03;;;;;;;19.48;8.50;;;18.30;94.70;;;;;;5067940;28;20075;-67
2022/06/09 01:28:47;;;;;;;20.27;8.68;;;18.20;94.60;;;;;;5065288;28;20033;-67
2022/06/09 01:31:27;;;;;;;17.75;8.65;;;18.20;94.60;;;;;;5068628;28;20056;-67
2022/06/09 01:34:10;;;;;;;15.82;9.45;;;18.20;94.70;;;;;;5059451;28;20033;-67
2022/06/09 01:36:44;;;;;;;22.92;10.18;;;18.20;94.90;;;;;;5072995;28;20078;-67
2022/06/09 01:39:10;;;;;;;22.63;9.38;;;18.20;95.20;;;;;;5068986;28;20036;-67
2022/06/09 01:41:36;;;;;;;17.05;8.07;;;18.20;95.00;;;;;;5062832;28;20043;-67
2022/06/09 01:44:03;;;;;;;21.08;9.13;;;18.20;95.10;;;;;;5069009;28;20395;-67
2022/06/09 01:46:32;;;;;;;22.00;9.70;;;18.20;94.90;;;;;;5068223;28;20025;-67
2022/06/09 01:49:07;;;;;;;15.43;8.65;;;18.20;94.80;;;;;;5052393;28;20773;-67
2022/06/09 01:51:37;;;;;;;15.55;8.18;;;18.20;94.80;;;;;;5061255;28;20032;-66
2022/06/09 01:54:08;;;;;;;18.50;9.05;;;18.10;94.70;;;;;;5057948;28;20044;-67
2022/06/09 01:56:58;;;;;;;17.77;8.63;;;18.10;94.70;;;;;;5061968;28;20371;-67
2022/06/09 01:59:33;;;;;;;17.13;7.75;;;18.10;94.60;;;;;;5058127;28;20477;-67
2022/06/09 02:02:04;;;;;;;15.43;7.38;;;18.10;94.40;;;;;;5070935;28;20495;-67
2022/06/09 02:04:42;;;;;;;17.98;8.52;;;18.00;94.40;;;;;;5052734;28;20468;-67
2022/06/09 02:07:09;;;;;;;24.10;8.55;;;18.00;94.50;;;;;;5063321;28;20426;-67
2022/06/09 02:09:37;;;;;;;20.20;9.40;;;18.00;94.60;;;;;;5063048;28;20056;-67
2022/06/09 02:12:16;;;;;;;22.13;9.02;;;17.90;94.60;;;;;;5057379;28;20036;-67
2022/06/09 02:14:53;;;;;;;24.48;9.98;;;17.90;94.70;;;;;;5063972;28;20024;-67
2022/06/09 02:17:20;;;;;;;22.15;9.57;;;17.90;94.80;;;;;;5063945;28;20530;-67
2022/06/09 02:19:48;;;;;;;24.13;8.98;;;17.90;94.80;;;;;;5068784;28;20025;-67
2022/06/09 02:22:16;;;;;;;26.17;9.77;;;17.90;94.90;;;;;;5070634;28;20044;-67
2022/06/09 02:24:42;;;;;;;17.02;6.75;;;17.80;94.90;;;;;;5066233;28;20036;-67
2022/06/09 02:27:09;;;;;;;18.15;7.53;;;17.90;94.90;;;;;;5070196;28;20029;-67
2022/06/09 02:29:35;;;;;;;18.83;7.68;;;17.80;94.90;;;;;;5068305;28;20491;-67
2022/06/09 02:32:01;;;;;;;22.38;9.23;;;17.80;95.00;;;;;;5069289;28;20029;-67
2022/06/09 02:34:27;;;;;;;16.60;5.18;;;17.80;95.10;;;;;;5068584;28;20040;-67
2022/06/09 02:36:52;;;;;;;6.47;3.92;;;17.80;95.00;;;;;;5070878;28;20036;-67
2022/06/09 02:39:18;;;;;;;18.73;6.85;;;17.80;95.10;;;;;;5066422;28;20119;-67
2022/06/09 02:41:44;;;;;;;24.23;8.90;;;17.70;95.20;;;;;;5067257;28;20041;-67
2022/06/09 02:44:10;;;;;;;16.70;6.43;;;17.70;95.40;;;;;;5068696;28;20036;-67
2022/06/09 02:46:35;;;;;;;14.30;4.50;;;17.70;95.30;;;;;;5066829;28;20031;-67
2022/06/09 02:49:01;;;;;;;5.55;2.30;;;17.70;95.50;;;;;;5066742;28;20365;-67
2022/06/09 02:51:30;;;;;;;10.52;5.07;;;17.70;95.60;;;;;;5068418;28;20033;-67
2022/06/09 02:54:01;;;;;;;12.27;6.38;;;17.70;95.70;;;;;;5066428;28;20086;-67
2022/06/09 02:56:28;;;;;;;12.48;7.00;;;17.60;95.80;;;;;;5062336;28;20057;-67
2022/06/09 02:58:56;;;;;;;17.20;6.88;;;17.60;95.90;;;;;;5066497;28;20058;-67
2022/06/09 03:01:24;;;;;;;15.18;6.63;;;17.60;95.90;;;;;;5067518;28;20147;-67
2022/06/09 03:03:51;;;;;;;12.90;6.47;;;17.60;96.00;;;;;;5065284;28;20166;-67
2022/06/09 03:06:16;;;;;;;9.07;3.83;;;17.60;96.00;;;;;;5066587;28;20029;-67
2022/06/09 03:08:43;;;;;;;10.60;5.60;;;17.60;96.00;;;;;;5052341;28;20075;-67
2022/06/09 03:11:15;;;;;;;18.23;10.60;;;17.50;96.00;;;;;;5055753;28;20020;-67
2022/06/09 03:13:42;;;;;;;15.40;5.97;;;17.60;96.20;;;;;;5051630;28;20029;-67
2022/06/09 03:16:10;;;;;;;14.90;8.07;;;17.50;96.10;;;;;;5066242;28;20503;-67
2022/06/09 03:18:36;;;;;;;21.60;8.57;;;17.50;96.20;;;;;;5070417;28;20119;-67
2022/06/09 03:21:03;;;;;;;20.10;10.20;;;17.50;96.20;;;;;;5060253;28;20040;-67
2022/06/09 03:23:29;;;;;;;11.50;5.07;;;17.50;96.20;;;;;;5071594;28;20040;-67
2022/06/09 03:25:55;;;;;;;6.60;4.07;;;17.50;96.20;;;;;;5070237;28;20438;-67
2022/06/09 03:28:21;;;;;;;15.38;7.75;;;17.50;96.20;;;;;;5069030;28;20033;-67
2022/06/09 03:30:47;;;;;;;8.93;4.90;;;17.50;96.30;;;;;;5067709;28;20107;-67
2022/06/09 03:33:12;;;;;;;10.52;5.25;;;17.50;96.30;;;;;;5069346;28;20384;-67
2022/06/09 03:35:38;;;;;;;17.13;8.55;;;17.50;96.30;;;;;;5059696;28;20041;-67
2022/06/09 03:38:04;;;;;;;12.38;5.88;;;17.40;96.30;;;;;;5071090;28;20039;-67
2022/06/09 03:40:31;;;;;;;10.68;5.05;;;17.40;96.30;;;;;;5065065;28;20230;-67
2022/06/09 03:42:58;;;;;;;19.58;9.38;;;17.40;96.40;;;;;;5068568;28;20037;-67
2022/06/09 03:45:24;;;;;;;12.02;6.85;;;17.40;96.40;;;;;;5064972;28;20032;-67
2022/06/09 03:47:50;;;;;;;13.82;5.82;;;17.40;96.40;;;;;;5060934;28;20028;-67
2022/06/09 03:50:20;;;;;;;26.20;13.23;;;17.40;96.40;;;;;;5057841;28;20033;-67
2022/06/09 03:52:46;;;;;;;24.73;12.10;;;17.40;96.50;;;;;;5075476;28;20070;-67
2022/06/09 03:55:12;;;;;;;21.83;7.97;;;17.40;96.40;;;;;;5074918;28;20115;-67
2022/06/09 03:57:38;;;;;;;21.15;10.80;;;17.40;96.40;;;;;;5070425;28;20112;-67
2022/06/09 04:00:17;;;;;;;14.90;7.72;;;17.40;96.40;;;;;;5070034;28;20063;-67
2022/06/09 04:02:42;;;;;;;18.98;8.05;;;17.40;96.30;;;;;;5062469;28;20049;-67
2022/06/09 04:05:08;;;;;;;7.68;4.65;;;17.40;96.30;;;;;;5065718;28;20024;-67
2022/06/09 04:07:34;;;;;;;21.67;10.98;;;17.40;96.30;;;;;;5074255;28;20032;-67
2022/06/09 04:10:00;;;;;;;21.48;9.85;;;17.40;96.40;;;;;;5068787;28;20032;-67
2022/06/09 04:12:26;;;;;;;16.33;9.20;;;17.40;96.40;;;;;;5072270;28;20032;-67
2022/06/09 04:14:52;;;;;;;11.07;5.45;;;17.30;96.40;;;;;;5064038;28;20076;-67
2022/06/09 04:17:18;;;;;;;11.45;5.45;;;17.30;96.40;;;;;;5074539;28;20357;-67
2022/06/09 04:19:43;;;;;;;14.35;7.03;;;17.30;96.30;;;;;;5071013;28;20031;-67
2022/06/09 04:22:18;;;;;;;25.13;13.20;;;17.40;96.40;;;;;;5065885;28;20037;-67
2022/06/09 04:24:44;;;;;;;14.25;7.35;;;17.30;96.50;;;;;;5073765;28;20478;-67
2022/06/09 04:27:10;;;;;;;23.30;12.48;;;17.30;96.40;;;;;;5074677;28;20104;-67
2022/06/09 04:29:36;;;;;;;13.90;6.53;;;17.40;96.50;;;;;;5060303;28;20468;-67
2022/06/09 04:32:01;;;;;;;18.98;9.00;;;17.40;96.40;;;;;;5074117;28;20388;-67
2022/06/09 04:34:27;;;;;;;24.90;12.68;;;17.40;96.40;;;;;;5073989;28;20477;-67
2022/06/09 04:36:53;;;;;;;21.50;10.75;;;17.30;96.50;;;;;;5074615;28;20145;-67
2022/06/09 04:39:18;;;;;;;21.95;13.10;;;17.40;96.50;;;;;;5072714;28;20028;-67
2022/06/09 04:41:44;;;;;;;15.00;8.38;;;17.40;96.50;;;;;;5072045;28;20117;-67
2022/06/09 04:44:11;;;;;;;23.58;12.20;;;17.40;96.40;;;;;;5074035;28;20029;-67
2022/06/09 04:46:36;;;;;;;17.67;8.88;;;17.40;96.40;;;;;;5062451;28;20025;-67
2022/06/09 04:49:02;;;;;;;23.88;11.73;;;17.40;96.40;;;;;;5068841;28;20123;-67
2022/06/09 04:51:29;;;;;;;23.60;11.13;;;17.40;96.40;;;;;;5068082;28;20047;-67
2022/06/09 04:53:55;;;;;;;25.65;13.07;;;17.40;96.40;;;;;;5067119;28;20033;-67
2022/06/09 04:56:21;;;;;;;32.70;16.83;;;17.40;96.40;;;;;;5057085;28;20095;-67
2022/06/09 04:58:51;;;;;;;18.90;8.93;;;17.40;96.50;;;;;;5073574;28;20138;-67
2022/06/09 05:01:28;;;;;;;26.90;12.57;;;17.50;96.40;;;;;;5060944;28;20056;-67
2022/06/09 05:03:54;;;;;;;25.35;14.07;;;17.40;96.40;;;;;;5069059;28;20041;-67
2022/06/09 05:06:22;;;;;;;26.63;11.57;;;17.40;96.40;;;;;;5072240;28;20032;-67
2022/06/09 05:08:49;;;;;;;13.50;6.00;;;17.50;96.40;;;;;;5066193;28;20546;-68
2022/06/09 05:11:15;;;;;;;20.33;10.27;;;17.50;96.30;;;;;;5061071;28;20078;-68
2022/06/09 05:13:41;;;;;;;16.77;9.65;;;17.50;96.30;;;;;;5065237;28;20033;-67
2022/06/09 05:16:08;;;;;;;17.65;9.85;;;17.50;96.40;;;;;;5067937;28;20032;-68
2022/06/09 05:18:35;;;;;;;18.08;8.48;;;17.50;96.30;;;;;;5073385;28;20042;-67
2022/06/09 05:21:02;;;;;;;14.57;7.60;;;17.50;96.30;;;;;;5061235;28;20043;-66
2022/06/09 05:23:29;;;;;;;14.50;9.65;;;17.50;96.30;;;;;;5072183;28;20040;-67
2022/06/09 05:25:56;;;;;;;17.63;9.48;;;17.50;96.50;;;;;;5072455;28;20108;-69
2022/06/09 05:28:24;;;;;;;17.17;10.45;;;17.50;96.50;;;;;;5071148;28;20036;-70
2022/06/09 05:30:50;;;;;;;15.35;6.95;;;17.50;96.50;;;;;;5070024;28;20033;-69
2022/06/09 05:33:17;;;;;;;4.38;3.03;;;17.50;96.40;;;;;;5067994;28;20066;-70
2022/06/09 05:35:46;;;;;;;8.07;5.80;;;17.50;96.40;;;;;;5069542;28;20032;-69
2022/06/09 05:46:27;;;;;;;12.38;7.82;;;17.50;96.60;;;;;;5068874;28;20491;-68
2022/06/09 05:48:53;;;;;;;4.93;3.15;;;17.60;96.60;;;;;;5066886;28;20033;-69
2022/06/09 05:51:19;;;;;;;6.85;4.25;;;17.60;96.40;;;;;;5068466;28;20036;-70
2022/06/09 05:53:45;;;;;;;9.63;4.25;;;17.60;96.40;;;;;;5070749;28;20032;-70
2022/06/09 05:56:12;;;;;;;11.02;6.70;;;17.60;96.40;;;;;;5069946;28;21464;-70
2022/06/09 05:58:38;;;;;;;5.35;3.45;;;17.60;96.50;;;;;;5066756;28;20030;-70
2022/06/09 06:01:08;;;;;;;5.30;2.53;;;17.60;96.50;;;;;;5070484;28;20060;-70
2022/06/09 06:03:35;;;;;;;8.98;4.60;;;17.60;96.60;;;;;;5061913;28;20037;-69
2022/06/09 06:08:46;;;;;;;9.00;5.22;;;17.60;96.80;;;;;;5068086;28;20056;-68
2022/06/09 06:11:14;;;;;;;9.23;4.75;;;17.60;96.90;;;;;;5065943;28;20109;-69
2022/06/09 06:13:41;;;;;;;5.18;2.90;;;17.50;96.90;;;;;;5067270;28;20141;-68
2022/06/09 06:16:07;;;;;;;8.90;3.85;;;17.60;96.90;;;;;;5067981;28;20033;-69
2022/06/09 06:18:33;;;;;;;14.48;8.48;;;17.60;97.00;;;;;;5066815;28;20033;-68
2022/06/09 06:20:58;;;;;;;9.65;5.03;;;17.60;97.10;;;;;;5066201;28;20035;-70
2022/06/09 06:23:24;;;;;;;6.57;3.92;;;17.60;97.20;;;;;;5066032;28;20468;-69
2022/06/09 06:25:52;;;;;;;5.60;3.78;;;17.60;97.30;;;;;;5066831;28;20063;-68
2022/06/09 06:28:17;;;;;;;10.18;5.60;;;17.60;97.40;;;;;;5069438;28;20052;-68
2022/06/09 06:30:43;;;;;;;13.18;7.97;;;17.60;97.40;;;;;;5068953;28;20063;-67
2022/06/09 06:33:09;;;;;;;16.17;9.18;;;17.60;97.50;;;;;;5070473;28;20373;-67
2022/06/09 06:35:38;;;;;;;12.18;7.05;;;17.60;97.50;;;;;;5068487;28;20029;-67
2022/06/09 06:38:04;;;;;;;13.00;7.65;;;17.60;97.40;;;;;;5069812;28;20039;-66
2022/06/09 06:40:30;;;;;;;9.73;4.38;;;17.60;97.30;;;;;;5065786;28;20358;-66
2022/06/09 06:42:56;;;;;;;11.57;5.28;;;17.70;97.30;;;;;;5067376;28;20039;-68
2022/06/09 06:45:21;;;;;;;13.55;7.35;;;17.70;97.30;;;;;;5063639;28;20038;-67
2022/06/09 06:47:47;;;;;;;6.90;3.90;;;17.70;97.40;;;;;;5070055;28;20067;-67
2022/06/09 06:50:14;;;;;;;8.55;4.93;;;17.70;97.40;;;;;;5069259;28;20043;-67
2022/06/09 06:52:40;;;;;;;13.55;8.07;;;17.70;97.50;;;;;;5065071;28;20542;-67
2022/06/09 06:55:10;;;;;;;13.35;7.75;;;17.70;97.50;;;;;;5068340;28;20452;-67
2022/06/09 06:57:36;;;;;;;11.50;7.30;;;17.80;97.60;;;;;;5065504;28;20150;-68
2022/06/09 07:00:07;;;;;;;11.50;6.43;;;17.80;97.50;;;;;;5061670;28;20459;-68
2022/06/09 07:02:33;;;;;;;10.88;4.75;;;17.80;97.40;;;;;;5066614;28;20152;-67
2022/06/09 07:04:58;;;;;;;15.95;6.95;;;17.80;97.50;;;;;;5068912;28;20472;-68
2022/06/09 07:07:25;;;;;;;8.35;4.32;;;17.90;97.90;;;;;;5060185;28;20111;-68
2022/06/09 07:09:51;;;;;;;7.53;4.22;;;17.80;97.70;;;;;;5068067;28;20471;-68
2022/06/09 07:12:20;;;;;;;4.72;2.90;;;17.90;97.70;;;;;;5065104;28;20480;-68
2022/06/09 07:14:46;;;;;;;10.23;5.18;;;17.90;97.80;;;;;;5069844;28;20035;-68
2022/06/09 07:17:12;;;;;;;7.35;3.40;;;17.80;97.90;;;;;;5060139;28;20040;-67
2022/06/09 07:19:38;;;;;;;8.85;6.05;;;17.80;97.90;;;;;;5061883;28;20028;-68
2022/06/09 07:22:06;;;;;;;3.45;2.28;;;17.90;98.00;;;;;;5054610;28;20187;-68
2022/06/09 07:24:36;;;;;;;4.30;2.80;;;17.90;98.00;;;;;;5066007;28;20045;-67
2022/06/09 07:27:02;;;;;;;5.72;2.70;;;17.90;98.00;;;;;;5061718;28;20029;-67
2022/06/09 07:29:33;;;;;;;12.13;7.32;;;17.90;98.00;;;;;;5070420;28;20024;-67
2022/06/09 07:32:03;;;;;;;4.88;2.50;;;18.00;98.20;;;;;;5070416;28;20478;-68
2022/06/09 07:34:29;;;;;;;3.45;2.38;;;18.00;98.00;;;;;;5054151;28;20040;-68
2022/06/09 07:36:54;;;;;;;6.32;3.58;;;18.10;98.00;;;;;;5064342;28;20036;-67
2022/06/09 07:39:24;;;;;;;6.72;3.45;;;18.10;98.00;;;;;;5063070;28;20060;-67
2022/06/09 07:41:50;;;;;;;8.88;5.18;;;18.10;98.00;;;;;;5063950;28;20054;-67
2022/06/09 07:44:23;;;;;;;9.07;4.72;;;18.20;98.00;;;;;;5067979;28;20033;-67
2022/06/09 07:46:49;;;;;;;9.30;5.63;;;18.20;98.00;;;;;;5065019;28;20032;-66
2022/06/09 07:49:15;;;;;;;4.32;2.70;;;18.30;98.00;;;;;;5062447;28;20025;-67
2022/06/09 07:51:41;;;;;;;3.45;2.40;;;18.20;97.90;;;;;;5062880;28;20117;-67
2022/06/09 07:54:08;;;;;;;6.72;4.13;;;18.30;98.00;;;;;;5067944;28;20021;-67
2022/06/09 07:56:34;;;;;;;3.80;1.58;;;18.30;98.00;;;;;;5069185;28;20032;-67
2022/06/09 07:59:01;;;;;;;1.10;1.00;;;18.30;98.20;;;;;;5069620;28;20479;-66
2022/06/09 08:01:30;;;;;;;5.97;2.47;;;18.30;97.90;;;;;;5069130;28;20131;-67
2022/06/09 08:03:59;;;;;;;3.58;2.00;;;18.30;97.90;;;;;;5067027;28;20123;-66
2022/06/09 08:06:25;;;;;;;2.70;1.80;;;18.40;97.90;;;;;;5069106;28;20033;-66
2022/06/09 08:08:53;;;;;;;3.78;2.20;;;18.30;97.90;;;;;;5064221;28;20086;-66
2022/06/09 08:11:23;;;;;;;1.17;1.08;;;18.40;97.90;;;;;;5063933;28;20029;-66
2022/06/09 08:13:49;;;;;;;4.90;2.50;;;18.40;97.90;;;;;;5069567;28;20036;-66
2022/06/09 08:16:18;;;;;;;3.38;1.25;;;18.40;97.80;;;;;;5066631;28;20033;-66
2022/06/09 08:18:44;;;;;;;2.75;1.77;;;18.50;97.90;;;;;;5069336;28;20037;-66
2022/06/09 08:21:10;;;;;;;2.33;1.73;;;18.40;97.90;;;;;;5062076;28;20484;-66
2022/06/09 08:23:36;;;;;;;7.70;2.85;;;18.50;98.00;;;;;;5066470;28;20039;-66
2022/06/09 08:26:05;;;;;;;3.17;2.17;;;18.40;98.00;;;;;;5062480;28;20533;-67
2022/06/09 08:28:32;;;;;;;4.43;2.08;;;18.50;98.00;;;;;;5054163;28;20041;-67
2022/06/09 08:31:00;;;;;;;2.33;1.52;;;18.50;97.80;;;;;;5064193;28;20066;-66
2022/06/09 08:33:27;;;;;;;3.80;1.65;;;18.60;97.80;;;;;;5064596;28;20033;-66
2022/06/09 08:35:54;;;;;;;6.15;1.05;;;18.60;97.80;;;;;;5062664;28;20357;-65
2022/06/09 08:38:20;;;;;;;3.75;1.67;;;18.60;97.80;;;;;;5065619;28;20075;-66
2022/06/09 08:41:27;;;;;;;9.52;2.20;;;18.70;97.80;;;;;;5068844;28;20020;-66
2022/06/09 08:44:16;;;;;;;1.40;1.20;;;18.70;97.80;;;;;;5068095;28;20135;-66
2022/06/09 08:47:01;;;;;;;4.63;2.10;;;18.70;97.70;;;;;;5062649;28;20024;-66
2022/06/09 08:49:37;;;;;;;1.38;0.77;;;18.80;97.70;;;;;;5069160;28;20376;-66
2022/06/09 08:52:17;;;;;;;1.10;1.02;;;18.80;97.70;;;;;;5069232;28;20694;-65
2022/06/09 08:54:44;;;;;;;6.10;1.75;;;18.80;97.70;;;;;;5069428;28;20630;-66
2022/06/09 08:57:17;;;;;;;6.10;2.28;;;18.90;97.70;;;;;;5069441;28;20029;-65
2022/06/09 08:59:50;;;;;;;2.05;1.27;;;18.90;97.60;;;;;;5064089;28;20492;-66
2022/06/09 09:02:19;;;;;;;2.90;1.67;;;18.90;97.60;;;;;;5065666;28;20067;-66
2022/06/09 09:04:51;;;;;;;1.33;0.85;;;18.90;97.50;;;;;;5060627;28;20349;-65
2022/06/09 09:07:30;;;;;;;5.88;1.30;;;19.00;97.50;;;;;;5067672;28;20539;-65
2022/06/09 09:10:12;;;;;;;3.17;1.15;;;19.00;97.40;;;;;;5072983;28;20035;-65
2022/06/09 09:13:12;;;;;;;4.03;1.48;;;19.10;97.60;;;;;;5068844;28;20078;-65
2022/06/09 09:15:49;;;;;;;0.77;0.73;;;19.10;97.20;;;;;;5067204;28;20032;-65
2022/06/09 09:18:28;;;;;;;3.47;0.98;;;19.20;97.20;;;;;;5064006;28;20082;-65
2022/06/09 09:21:16;;;;;;;0.40;0.40;;;19.20;97.10;;;;;;5060131;28;20087;-65
2022/06/09 09:24:06;;;;;;;3.70;1.52;;;19.30;97.10;;;;;;5067291;28;20442;-65
2022/06/09 09:26:54;;;;;;;1.27;0.88;;;19.30;97.00;;;;;;5071864;28;20036;-65
2022/06/09 09:29:24;;;;;;;6.13;0.95;;;19.30;97.00;;;;;;5069156;28;20562;-65
2022/06/09 09:32:06;;;;;;;3.75;1.13;;;19.30;97.00;;;;;;5064752;28;20041;-65
2022/06/09 09:34:39;;;;;;;1.48;0.50;;;19.30;97.10;;;;;;5061116;28;20033;-65
2022/06/09 09:37:32;;;;;;;4.50;1.27;;;19.30;97.20;;;;;;5057295;28;20048;-65
2022/06/09 09:40:15;;;;;;;1.95;1.10;;;19.30;97.10;;;;;;5065638;28;20055;-65
2022/06/09 09:42:44;;;;;;;2.58;0.70;;;19.40;96.90;;;;;;5066708;28;20127;-67
2022/06/09 09:45:09;;;;;;;1.75;1.00;;;19.50;97.00;;;;;;5067392;28;20119;-66
2022/06/09 09:48:02;;;;;;;3.33;1.40;;;19.50;96.90;;;;;;5071280;28;20135;-67
2022/06/09 09:50:51;;;;;;;0.75;0.47;;;19.50;96.90;;;;;;5070956;28;20431;-67
2022/06/09 09:53:28;;;;;;;1.65;0.70;;;19.60;96.90;;;;;;5072077;28;20036;-67
2022/06/09 09:56:18;;;;;;;6.63;1.02;;;19.60;96.60;;;;;;5070090;28;20473;-67
2022/06/09 09:58:46;;;;;;;0.43;0.43;;;19.60;96.40;;;;;;5064520;28;20025;-67
2022/06/09 10:01:22;;;;;;;2.17;1.15;;;19.70;96.60;;;;;;5063296;28;20440;-67
2022/06/09 10:09:50;;;;;;;2.58;0.65;;;19.70;96.40;;;;;;5067388;28;20040;-67
2022/06/09 10:12:35;;;;;;;5.53;1.42;;;19.70;96.50;;;;;;5071701;28;20035;-67
2022/06/09 10:15:15;;;;;;;8.93;1.38;;;19.80;96.40;;;;;;5057426;28;20111;-67
2022/06/09 10:18:01;;;;;;;3.63;0.93;;;19.80;96.00;;;;;;5066773;28;20020;-67
2022/06/09 10:20:43;;;;;;;2.92;0.60;;;19.80;96.20;;;;;;5063341;28;20416;-65
2022/06/09 10:23:16;;;;;;;5.00;1.10;;;19.90;96.40;;;;;;5067239;28;20052;-68
2022/06/09 10:26:13;;;;;;;2.05;0.73;;;20.00;96.20;;;;;;5067994;28;20048;-68
2022/06/09 10:29:06;;;;;;;0.65;0.65;;;20.00;96.30;;;;;;5065511;28;20029;-67
2022/06/09 10:31:38;;;;;;;5.93;0.57;;;20.00;96.10;;;;;;5064623;28;20035;-68
2022/06/09 10:34:21;;;;;;;3.35;0.90;;;20.00;96.10;;;;;;5067549;28;20028;-67
2022/06/09 10:37:02;;;;;;;4.25;1.30;;;20.10;96.00;;;;;;5062961;28;20029;-68
2022/06/09 10:39:55;;;;;;;4.88;1.00;;;20.10;95.80;;;;;;5062872;28;20039;-70
2022/06/09 10:42:45;;;;;;;3.33;1.23;;;20.10;96.00;;;;;;5064762;28;20040;-69
2022/06/09 10:45:17;;;;;;;1.08;0.95;;;20.20;95.50;;;;;;5064139;28;20033;-69
2022/06/09 10:57:37;;;;;;;2.38;1.02;;;20.30;95.60;;;;;;5065010;28;20024;-69
2022/06/09 11:00:38;;;;;;;1.95;0.82;;;20.40;95.90;;;;;;5065420;28;20108;-69
2022/06/09 11:03:14;;;;;;;2.97;0.82;;;20.40;95.60;;;;;;5042476;28;20040;-69
2022/06/09 11:06:06;;;;;;;0.38;0.35;;;20.50;95.60;;;;;;5062250;28;20032;-69
2022/06/09 11:08:55;;;;;;;2.92;0.75;;;20.50;95.50;;;;;;5063437;28;20484;-69
2022/06/09 11:11:29;;;;;;;2.25;0.90;;;20.50;95.30;;;;;;5061895;28;20098;-69
2022/06/09 11:14:11;;;;;;;6.00;1.15;;;20.60;95.30;;;;;;5061321;28;20056;-69
2022/06/09 11:17:05;;;;;;;2.40;0.63;;;20.60;95.10;;;;;;5065185;28;20065;-69
2022/06/09 11:19:58;;;;;;;3.35;1.25;;;20.60;95.20;;;;;;5063428;28;20125;-69
2022/06/09 11:22:40;;;;;;;1.73;0.83;;;20.70;95.10;;;;;;5065436;28;20111;-69
2022/06/09 11:25:46;;;;;;;0.98;0.90;;;20.70;95.00;;;;;;5065123;28;20511;-69
2022/06/09 11:28:38;;;;;;;5.43;0.70;;;20.70;94.70;;;;;;5042303;28;20036;-69
2022/06/09 11:31:07;;;;;;;3.03;1.05;;;20.70;94.90;;;;;;5064966;28;20032;-69
2022/06/09 11:34:05;;;;;;;2.83;1.00;;;20.70;94.50;;;;;;5067060;28;20086;-69
2022/06/09 11:36:45;;;;;;;2.08;0.85;;;20.70;94.40;;;;;;5039079;28;20059;-69
2022/06/09 11:39:30;;;;;;;1.58;0.77;;;20.80;94.30;;;;;;5060200;28;20151;-69
2022/06/09 11:42:15;;;;;;;0.98;0.90;;;20.80;94.40;;;;;;5057101;28;20025;-69
2022/06/09 11:44:43;;;;;;;1.23;0.95;;;20.90;94.50;;;;;;5064119;28;20067;-69
2022/06/09 11:47:16;;;;;;;1.10;0.63;;;20.90;94.00;;;;;;5068368;28;20056;-69
2022/06/09 11:49:50;;;;;;;1.58;0.77;;;21.00;93.90;;;;;;5062849;28;20035;-69
2022/06/09 11:52:22;;;;;;;0.50;0.50;;;21.00;93.80;;;;;;5059111;28;20119;-69
2022/06/09 11:54:48;;;;;;;0.63;0.63;;;21.00;93.90;;;;;;5066860;28;20033;-67
2022/06/09 11:57:29;;;;;;;5.72;0.80;;;21.00;93.70;;;;;;5067457;28;20776;-67
2022/06/09 11:59:59;;;;;;;3.63;1.20;;;21.10;93.80;;;;;;5066378;28;20092;-68
2022/06/09 12:02:40;;;;;;;7.80;1.48;;;21.20;93.80;;;;;;5065262;28;20513;-69
2022/06/09 12:05:22;;;;;;;3.17;0.68;;;21.20;93.60;;;;;;5059331;28;20028;-69
2022/06/09 12:08:17;;;;;;;4.97;1.30;;;21.30;93.80;;;;;;5060009;28;20052;-69
2022/06/09 12:11:04;;;;;;;3.20;1.38;;;21.30;93.50;;;;;;5062114;28;20043;-69
2022/06/09 12:14:00;;;;;;;3.03;0.63;;;21.40;93.70;;;;;;5067932;28;20512;-68
2022/06/09 12:16:40;;;;;;;3.45;0.90;;;21.40;93.20;;;;;;5069270;28;20048;-67
2022/06/09 12:19:17;;;;;;;1.02;0.63;;;21.50;93.50;;;;;;5067060;28;20061;-67
2022/06/09 12:21:50;;;;;;;2.65;0.70;;;21.50;93.70;;;;;;5069338;28;20502;-67
2022/06/09 12:24:22;;;;;;;2.03;0.80;;;21.60;93.60;;;;;;5064832;28;20044;-67
2022/06/09 12:26:56;;;;;;;6.63;0.60;;;21.60;93.20;;;;;;5068166;28;20048;-67
2022/06/09 12:29:37;;;;;;;2.05;0.60;;;21.60;93.10;;;;;;5066227;28;20831;-69
2022/06/09 12:32:09;;;;;;;2.30;0.60;;;21.60;92.90;;;;;;5069113;28;20032;-67
2022/06/09 12:34:38;;;;;;;0.93;0.40;;;21.60;92.40;;;;;;5068916;28;20032;-67
2022/06/09 12:37:05;;;;;;;2.35;0.52;;;21.70;92.90;;;;;;5064055;28;20035;-67
2022/06/09 12:39:39;;;;;;;3.40;0.60;;;21.80;92.50;;;;;;5068797;28;20107;-67
2022/06/09 12:42:23;;;;;;;1.45;0.40;;;21.70;92.10;;;;;;5066189;28;20045;-67
2022/06/09 12:45:00;;;;;;;0.35;0.35;;;21.80;92.70;;;;;;5069173;28;20020;-67
2022/06/09 12:47:26;;;;;;;0.70;0.50;;;21.80;92.90;;;;;;5070146;28;20029;-67
2022/06/09 12:50:02;;;;;;;2.42;0.57;;;21.90;92.40;;;;;;5070024;28;20024;-67
2022/06/09 12:52:50;;;;;;;0.55;0.40;;;21.90;92.70;;;;;;5068773;28;20025;-67
2022/06/09 12:55:28;;;;;;;0.98;0.52;;;22.10;92.90;;;;;;5067323;28;20067;-67
2022/06/09 12:58:14;;;;;;;1.88;0.75;;;22.00;93.00;;;;;;5066232;28;20028;-67
2022/06/09 13:00:46;;;;;;;4.18;0.68;;;22.10;92.30;;;;;;5068991;28;20052;-67
2022/06/09 13:03:26;;;;;;;2.72;0.95;;;22.10;92.00;;;;;;5068265;28;20032;-65
2022/06/09 13:05:53;;;;;;;2.38;0.77;;;22.20;92.00;;;;;;5065853;28;20477;-67
2022/06/09 13:08:27;;;;;;;2.33;0.65;;;22.20;92.10;;;;;;5065399;28;20143;-67
2022/06/09 13:11:02;;;;;;;2.28;0.70;;;22.20;92.10;;;;;;5066527;28;20067;-67
2022/06/09 13:13:40;;;;;;;1.10;0.73;;;22.20;91.60;;;;;;5067344;28;20086;-67
2022/06/09 13:16:15;;;;;;;4.05;1.00;;;22.30;92.50;;;;;;5067468;28;20024;-67
2022/06/09 13:18:54;;;;;;;5.90;0.88;;;22.30;92.00;;;;;;5067088;28;20491;-67
2022/06/09 13:21:39;;;;;;;0.50;0.50;;;22.40;92.10;;;;;;5065604;28;20029;-67
2022/06/09 13:24:15;;;;;;;0.98;0.55;;;22.40;91.90;;;;;;5066126;28;20082;-67
2022/06/09 13:26:45;;;;;;;4.97;1.05;;;22.40;91.30;;;;;;5063987;28;20028;-67
2022/06/09 13:29:25;;;;;;;0.95;0.55;;;22.40;90.40;;;;;;5067208;28;20107;-68
2022/06/09 13:32:21;;;;;;;4.60;1.27;;;22.40;91.40;;;;;;5063802;28;20038;-67
2022/06/09 13:34:50;;;;;;;1.25;0.85;;;22.50;91.60;;;;;;5064908;28;20032;-68